sensor_id;sensor_type;location;lat;lon;timestamp;pressure;altitude;pressure_sealevel;temperature;humidity
55301;BME280;58302;51.446;-2.000;2022-11-15T00:00:27;99380.28;;;8.86;100.00
55301;BME280;58302;51.446;-2.000;2022-11-15T00:02:53;99370.91;;;9.13;100.00
55301;BME280;58302;51.446;-2.000;2022-11-15T00:05:19;99365.16;;;9.19;100.00
55301;BME280;58302;51.446;-2.000;2022-11-15T00:07:45;99362.34;;;9.30;100.00
55301;BME280;58302;51.446;-2.000;2022-11-15T00:10:11;99361.00;;;9.27;100.00
55301;BME280;58302;51.446;-2.000;2022-11-15T00:12:37;99347.72;;;9.31;100.00
55301;BME280;58302;51.446;-2.000;2022-11-15T00:15:03;99347.72;;;9.31;100.00
55301;BME280;58302;51.446;-2.000;2022-11-15T00:17:30;99341.19;;;9.32;100.00
55301;BME280;58302;51.446;-2.000;2022-11-15T00:19:56;99330.84;;;9.34;100.00
55301;BME280;58302;51.446;-2.000;2022-11-15T00:22:22;99326.31;;;9.29;100.00
55301;BME280;58302;51.446;-2.000;2022-11-15T00:24:48;99323.06;;;9.27;100.00
55301;BME280;58302;51.446;-2.000;2022-11-15T00:27:14;99317.66;;;9.22;100.00
55301;BME280;58302;51.446;-2.000;2022-11-15T00:29:39;99310.31;;;9.28;100.00
55301;BME280;58302;51.446;-2.000;2022-11-15T00:32:11;99295.44;;;9.25;100.00
55301;BME280;58302;51.446;-2.000;2022-11-15T00:34:37;99289.72;;;9.27;100.00
55301;BME280;58302;51.446;-2.000;2022-11-15T00:37:03;99292.97;;;9.29;100.00
55301;BME280;58302;51.446;-2.000;2022-11-15T00:39:29;99274.97;;;9.38;100.00
55301;BME280;58302;51.446;-2.000;2022-11-15T00:41:55;99281.44;;;9.42;100.00
55301;BME280;58302;51.446;-2.000;2022-11-15T00:44:21;99265.19;;;9.42;100.00
55301;BME280;58302;51.446;-2.000;2022-11-15T00:46:47;99254.84;;;9.44;100.00
55301;BME280;58302;51.446;-2.000;2022-11-15T00:49:13;99239.09;;;9.46;100.00
55301;BME280;58302;51.446;-2.000;2022-11-15T00:51:38;99226.09;;;9.43;100.00
55301;BME280;58302;51.446;-2.000;2022-11-15T00:54:04;99241.28;;;9.44;100.00
55301;BME280;58302;51.446;-2.000;2022-11-15T00:56:30;99232.63;;;9.42;100.00
55301;BME280;58302;51.446;-2.000;2022-11-15T00:58:56;99232.69;;;9.37;100.00
55301;BME280;58302;51.446;-2.000;2022-11-15T01:01:22;99231.28;;;9.39;100.00
55301;BME280;58302;51.446;-2.000;2022-11-15T01:03:48;99232.69;;;9.37;100.00
55301;BME280;58302;51.446;-2.000;2022-11-15T01:06:14;99222.13;;;9.35;100.00
55301;BME280;58302;51.446;-2.000;2022-11-15T01:08:40;99218.03;;;9.38;100.00
55301;BME280;58302;51.446;-2.000;2022-11-15T01:11:11;99212.59;;;9.38;100.00
55301;BME280;58302;51.446;-2.000;2022-11-15T01:13:38;99209.09;;;9.37;100.00
55301;BME280;58302;51.446;-2.000;2022-11-15T01:16:16;99197.94;;;9.39;100.00
55301;BME280;58302;51.446;-2.000;2022-11-15T01:18:45;99192.53;;;9.39;100.00
55301;BME280;58302;51.446;-2.000;2022-11-15T01:21:16;99187.91;;;9.39;100.00
55301;BME280;58302;51.446;-2.000;2022-11-15T01:23:42;99184.19;;;9.35;100.00
55301;BME280;58302;51.446;-2.000;2022-11-15T01:26:11;99182.16;;;9.46;100.00
55301;BME280;58302;51.446;-2.000;2022-11-15T01:28:39;99169.91;;;9.48;100.00
55301;BME280;58302;51.446;-2.000;2022-11-15T01:31:12;99158.03;;;9.44;100.00
55301;BME280;58302;51.446;-2.000;2022-11-15T01:33:38;99165.28;;;9.49;100.00
55301;BME280;58302;51.446;-2.000;2022-11-15T01:36:06;99159.50;;;9.56;100.00
55301;BME280;58302;51.446;-2.000;2022-11-15T01:38:33;99150.63;;;9.50;100.00
55301;BME280;58302;51.446;-2.000;2022-11-15T01:40:59;99138.66;;;9.56;100.00
55301;BME280;58302;51.446;-2.000;2022-11-15T01:43:34;99135.84;;;9.61;100.00
55301;BME280;58302;51.446;-2.000;2022-11-15T01:46:05;99127.44;;;9.63;100.00
55301;BME280;58302;51.446;-2.000;2022-11-15T01:48:33;99130.34;;;9.66;100.00
55301;BME280;58302;51.446;-2.000;2022-11-15T01:51:01;99133.53;;;9.73;100.00
55301;BME280;58302;51.446;-2.000;2022-11-15T01:53:29;99133.47;;;9.79;100.00
55301;BME280;58302;51.446;-2.000;2022-11-15T01:55:56;99140.38;;;9.90;100.00
55301;BME280;58302;51.446;-2.000;2022-11-15T01:58:23;99127.00;;;9.93;100.00
55301;BME280;58302;51.446;-2.000;2022-11-15T02:00:49;99121.72;;;10.02;100.00
55301;BME280;58302;51.446;-2.000;2022-11-15T02:03:16;99122.22;;;10.04;100.00
55301;BME280;58302;51.446;-2.000;2022-11-15T02:05:43;99114.00;;;10.09;100.00
55301;BME280;58302;51.446;-2.000;2022-11-15T02:08:10;99104.41;;;10.17;100.00
55301;BME280;58302;51.446;-2.000;2022-11-15T02:10:46;99089.94;;;10.21;100.00
55301;BME280;58302;51.446;-2.000;2022-11-15T02:13:16;99086.94;;;10.23;100.00
55301;BME280;58302;51.446;-2.000;2022-11-15T02:18:32;99070.28;;;10.29;100.00
55301;BME280;58302;51.446;-2.000;2022-11-15T02:21:07;99073.00;;;10.29;100.00
55301;BME280;58302;51.446;-2.000;2022-11-15T02:23:55;99076.53;;;10.30;100.00
55301;BME280;58302;51.446;-2.000;2022-11-15T02:29:07;99056.63;;;10.35;100.00
55301;BME280;58302;51.446;-2.000;2022-11-15T02:43:11;99029.13;;;10.22;100.00
55301;BME280;58302;51.446;-2.000;2022-11-15T02:46:04;99022.06;;;10.21;100.00
55301;BME280;58302;51.446;-2.000;2022-11-15T02:48:33;99002.78;;;10.23;100.00
55301;BME280;58302;51.446;-2.000;2022-11-15T02:51:00;99005.75;;;10.21;100.00
55301;BME280;58302;51.446;-2.000;2022-11-15T02:53:27;99012.09;;;10.17;100.00
55301;BME280;58302;51.446;-2.000;2022-11-15T02:55:54;98990.16;;;10.13;100.00
55301;BME280;58302;51.446;-2.000;2022-11-15T02:58:38;98996.41;;;10.14;100.00
55301;BME280;58302;51.446;-2.000;2022-11-15T03:07:06;98976.59;;;10.13;100.00
55301;BME280;58302;51.446;-2.000;2022-11-15T03:09:53;98971.16;;;10.13;100.00
55301;BME280;58302;51.446;-2.000;2022-11-15T03:12:25;98965.75;;;10.13;100.00
55301;BME280;58302;51.446;-2.000;2022-11-15T03:15:27;98966.31;;;10.10;100.00
55301;BME280;58302;51.446;-2.000;2022-11-15T03:18:02;98960.91;;;10.10;100.00
55301;BME280;58302;51.446;-2.000;2022-11-15T03:20:30;98945.72;;;10.09;100.00
55301;BME280;58302;51.446;-2.000;2022-11-15T03:23:02;98941.91;;;10.10;100.00
55301;BME280;58302;51.446;-2.000;2022-11-15T03:25:31;98937.25;;;10.11;100.00
55301;BME280;58302;51.446;-2.000;2022-11-15T03:28:01;98934.28;;;10.12;100.00
55301;BME280;58302;51.446;-2.000;2022-11-15T03:30:32;98927.13;;;10.16;100.00
55301;BME280;58302;51.446;-2.000;2022-11-15T03:33:01;98920.88;;;10.16;100.00
55301;BME280;58302;51.446;-2.000;2022-11-15T03:35:37;98912.75;;;10.16;100.00
55301;BME280;58302;51.446;-2.000;2022-11-15T03:38:14;98922.00;;;10.15;100.00
55301;BME280;58302;51.446;-2.000;2022-11-15T03:41:05;98899.69;;;10.18;100.00
55301;BME280;58302;51.446;-2.000;2022-11-15T03:48:43;98864.03;;;10.24;100.00
55301;BME280;58302;51.446;-2.000;2022-11-15T03:51:11;98868.94;;;10.22;100.00
55301;BME280;58302;51.446;-2.000;2022-11-15T03:53:37;98867.03;;;10.23;100.00
55301;BME280;58302;51.446;-2.000;2022-11-15T03:56:03;98857.28;;;10.22;100.00
55301;BME280;58302;51.446;-2.000;2022-11-15T03:58:30;98848.84;;;10.23;100.00
55301;BME280;58302;51.446;-2.000;2022-11-15T04:00:55;98848.28;;;10.21;100.00
55301;BME280;58302;51.446;-2.000;2022-11-15T04:03:21;98836.63;;;10.21;100.00
55301;BME280;58302;51.446;-2.000;2022-11-15T04:05:47;98841.78;;;10.22;100.00
55301;BME280;58302;51.446;-2.000;2022-11-15T04:08:13;98840.69;;;10.23;100.00
55301;BME280;58302;51.446;-2.000;2022-11-15T04:10:39;98836.06;;;10.24;100.00
55301;BME280;58302;51.446;-2.000;2022-11-15T04:13:05;98824.69;;;10.22;100.00
55301;BME280;58302;51.446;-2.000;2022-11-15T04:15:31;98818.66;;;10.25;100.00
55301;BME280;58302;51.446;-2.000;2022-11-15T04:17:58;98817.88;;;10.24;100.00
55301;BME280;58302;51.446;-2.000;2022-11-15T04:20:29;98814.56;;;10.27;100.00
55301;BME280;58302;51.446;-2.000;2022-11-15T04:23:19;98827.31;;;10.27;100.00
55301;BME280;58302;51.446;-2.000;2022-11-15T04:26:14;98808.31;;;10.27;100.00
55301;BME280;58302;51.446;-2.000;2022-11-15T04:28:41;98818.06;;;10.28;100.00
55301;BME280;58302;51.446;-2.000;2022-11-15T04:31:26;98807.00;;;10.24;100.00
55301;BME280;58302;51.446;-2.000;2022-11-15T04:33:52;98801.00;;;10.27;100.00
55301;BME280;58302;51.446;-2.000;2022-11-15T04:36:19;98808.03;;;10.28;100.00
55301;BME280;58302;51.446;-2.000;2022-11-15T04:39:03;98797.16;;;10.28;100.00
55301;BME280;58302;51.446;-2.000;2022-11-15T04:41:29;98792.53;;;10.29;100.00
55301;BME280;58302;51.446;-2.000;2022-11-15T04:43:55;98766.78;;;10.26;100.00
55301;BME280;58302;51.446;-2.000;2022-11-15T04:46:22;98790.13;;;10.27;100.00
55301;BME280;58302;51.446;-2.000;2022-11-15T04:48:48;98783.06;;;10.26;100.00
55301;BME280;58302;51.446;-2.000;2022-11-15T04:51:14;98785.50;;;10.28;100.00
55301;BME280;58302;51.446;-2.000;2022-11-15T04:53:40;98776.56;;;10.27;100.00
55301;BME280;58302;51.446;-2.000;2022-11-15T04:56:06;98773.84;;;10.27;100.00
55301;BME280;58302;51.446;-2.000;2022-11-15T04:58:32;98774.91;;;10.26;100.00
55301;BME280;58302;51.446;-2.000;2022-11-15T05:00:58;98758.63;;;10.26;100.00
55301;BME280;58302;51.446;-2.000;2022-11-15T05:03:24;98752.41;;;10.26;100.00
55301;BME280;58302;51.446;-2.000;2022-11-15T05:06:08;98759.44;;;10.27;100.00
55301;BME280;58302;51.446;-2.000;2022-11-15T05:08:34;98751.91;;;10.24;100.00
55301;BME280;58302;51.446;-2.000;2022-11-15T05:11:00;98739.94;;;10.25;100.00
55301;BME280;58302;51.446;-2.000;2022-11-15T05:13:26;98736.41;;;10.24;100.00
55301;BME280;58302;51.446;-2.000;2022-11-15T05:15:52;98732.59;;;10.25;100.00
55301;BME280;58302;51.446;-2.000;2022-11-15T05:18:18;98731.47;;;10.26;100.00
55301;BME280;58302;51.446;-2.000;2022-11-15T05:20:44;98725.56;;;10.24;100.00
55301;BME280;58302;51.446;-2.000;2022-11-15T05:23:10;98725.44;;;10.29;100.00
55301;BME280;58302;51.446;-2.000;2022-11-15T05:25:36;98722.09;;;10.33;100.00
55301;BME280;58302;51.446;-2.000;2022-11-15T05:28:02;98720.81;;;10.30;100.00
55301;BME280;58302;51.446;-2.000;2022-11-15T05:30:29;98718.59;;;10.32;100.00
55301;BME280;58302;51.446;-2.000;2022-11-15T05:32:55;98718.91;;;10.31;100.00
55301;BME280;58302;51.446;-2.000;2022-11-15T05:35:41;98702.63;;;10.31;100.00
55301;BME280;58302;51.446;-2.000;2022-11-15T05:38:08;98703.41;;;10.31;100.00
55301;BME280;58302;51.446;-2.000;2022-11-15T05:40:34;98696.06;;;10.32;100.00
55301;BME280;58302;51.446;-2.000;2022-11-15T05:43:02;98702.63;;;10.31;100.00
55301;BME280;58302;51.446;-2.000;2022-11-15T05:45:31;98682.00;;;10.29;100.00
55301;BME280;58302;51.446;-2.000;2022-11-15T05:47:58;98679.28;;;10.29;100.00
55301;BME280;58302;51.446;-2.000;2022-11-15T05:50:25;98667.81;;;10.33;100.00
55301;BME280;58302;51.446;-2.000;2022-11-15T05:52:52;98662.53;;;10.27;100.00
55301;BME280;58302;51.446;-2.000;2022-11-15T05:55:19;98659.81;;;10.27;100.00
55301;BME280;58302;51.446;-2.000;2022-11-15T05:57:45;98653.53;;;10.27;100.00
55301;BME280;58302;51.446;-2.000;2022-11-15T06:00:12;98639.38;;;10.30;100.00
55301;BME280;58302;51.446;-2.000;2022-11-15T06:02:38;98646.72;;;10.29;100.00
55301;BME280;58302;51.446;-2.000;2022-11-15T06:05:04;98654.53;;;10.31;100.00
55301;BME280;58302;51.446;-2.000;2022-11-15T06:07:30;98646.91;;;10.33;100.00
55301;BME280;58302;51.446;-2.000;2022-11-15T06:09:56;98649.13;;;10.31;100.00
55301;BME280;58302;51.446;-2.000;2022-11-15T06:12:22;98641.47;;;10.33;100.00
55301;BME280;58302;51.446;-2.000;2022-11-15T06:14:48;98637.94;;;10.33;100.00
55301;BME280;58302;51.446;-2.000;2022-11-15T06:17:14;98621.34;;;10.34;100.00
55301;BME280;58302;51.446;-2.000;2022-11-15T06:19:40;98609.06;;;10.37;100.00
55301;BME280;58302;51.446;-2.000;2022-11-15T06:22:06;98602.03;;;10.36;100.00
55301;BME280;58302;51.446;-2.000;2022-11-15T06:24:32;98603.03;;;10.40;100.00
55301;BME280;58302;51.446;-2.000;2022-11-15T06:26:58;98595.69;;;10.40;100.00
55301;BME280;58302;51.446;-2.000;2022-11-15T06:29:24;98595.16;;;10.38;100.00
55301;BME280;58302;51.446;-2.000;2022-11-15T06:31:51;98586.72;;;10.40;100.00
55301;BME280;58302;51.446;-2.000;2022-11-15T06:34:17;98584.50;;;10.42;100.00
55301;BME280;58302;51.446;-2.000;2022-11-15T06:36:43;98585.00;;;10.44;100.00
55301;BME280;58302;51.446;-2.000;2022-11-15T06:39:09;98580.84;;;10.46;100.00
55301;BME280;58302;51.446;-2.000;2022-11-15T06:41:35;98572.41;;;10.48;100.00
55301;BME280;58302;51.446;-2.000;2022-11-15T06:44:02;98560.41;;;10.49;100.00
55301;BME280;58302;51.446;-2.000;2022-11-15T06:46:28;98560.91;;;10.51;100.00
55301;BME280;58302;51.446;-2.000;2022-11-15T06:48:54;98561.09;;;10.54;100.00
55301;BME280;58302;51.446;-2.000;2022-11-15T06:51:20;98556.97;;;10.57;100.00
55301;BME280;58302;51.446;-2.000;2022-11-15T06:53:46;98549.28;;;10.59;100.00
55301;BME280;58302;51.446;-2.000;2022-11-15T06:56:12;98557.81;;;10.66;100.00
55301;BME280;58302;51.446;-2.000;2022-11-15T06:58:38;98560.22;;;10.68;100.00
55301;BME280;58302;51.446;-2.000;2022-11-15T07:01:07;98557.69;;;10.71;100.00
55301;BME280;58302;51.446;-2.000;2022-11-15T07:03:39;98549.69;;;10.75;100.00
55301;BME280;58302;51.446;-2.000;2022-11-15T07:06:06;98549.88;;;10.78;100.00
55301;BME280;58302;51.446;-2.000;2022-11-15T07:08:33;98553.06;;;10.80;100.00
55301;BME280;58302;51.446;-2.000;2022-11-15T07:11:01;98547.03;;;10.84;100.00
55301;BME280;58302;51.446;-2.000;2022-11-15T07:13:29;98537.44;;;10.86;100.00
55301;BME280;58302;51.446;-2.000;2022-11-15T07:16:02;98536.31;;;10.87;100.00
55301;BME280;58302;51.446;-2.000;2022-11-15T07:18:28;98522.41;;;10.89;100.00
55301;BME280;58302;51.446;-2.000;2022-11-15T07:20:54;98525.63;;;10.91;100.00
55301;BME280;58302;51.446;-2.000;2022-11-15T07:23:20;98521.78;;;10.92;100.00
55301;BME280;58302;51.446;-2.000;2022-11-15T07:25:46;98522.56;;;10.92;100.00
55301;BME280;58302;51.446;-2.000;2022-11-15T07:28:11;98498.91;;;10.93;100.00
55301;BME280;58302;51.446;-2.000;2022-11-15T07:30:37;98506.28;;;10.92;100.00
55301;BME280;58302;51.446;-2.000;2022-11-15T07:33:03;98504.84;;;10.95;100.00
55301;BME280;58302;51.446;-2.000;2022-11-15T07:35:29;98500.41;;;10.99;100.00
55301;BME280;58302;51.446;-2.000;2022-11-15T07:37:57;98498.78;;;10.98;100.00
55301;BME280;58302;51.446;-2.000;2022-11-15T07:40:24;98496.84;;;10.98;100.00
55301;BME280;58302;51.446;-2.000;2022-11-15T07:42:51;98494.97;;;10.99;100.00
55301;BME280;58302;51.446;-2.000;2022-11-15T07:45:20;98487.75;;;11.03;100.00
55301;BME280;58302;51.446;-2.000;2022-11-15T07:47:48;98485.03;;;11.03;100.00
55301;BME280;58302;51.446;-2.000;2022-11-15T07:50:14;98476.88;;;11.03;100.00
55301;BME280;58302;51.446;-2.000;2022-11-15T07:52:40;98469.06;;;11.01;100.00
55301;BME280;58302;51.446;-2.000;2022-11-15T07:55:06;98470.31;;;11.04;100.00
55301;BME280;58302;51.446;-2.000;2022-11-15T07:57:32;98468.72;;;11.03;100.00
55301;BME280;58302;51.446;-2.000;2022-11-15T07:59:58;98461.69;;;11.02;100.00
55301;BME280;58302;51.446;-2.000;2022-11-15T08:02:24;98467.94;;;11.02;100.00
55301;BME280;58302;51.446;-2.000;2022-11-15T08:04:50;98466.00;;;11.03;100.00
55301;BME280;58302;51.446;-2.000;2022-11-15T08:07:16;98472.25;;;11.03;100.00
55301;BME280;58302;51.446;-2.000;2022-11-15T08:09:42;98467.59;;;11.04;100.00
55301;BME280;58302;51.446;-2.000;2022-11-15T08:12:08;98462.66;;;11.06;100.00
55301;BME280;58302;51.446;-2.000;2022-11-15T08:14:35;98468.09;;;11.06;100.00
55301;BME280;58302;51.446;-2.000;2022-11-15T08:17:01;98461.53;;;11.07;100.00
55301;BME280;58302;51.446;-2.000;2022-11-15T08:19:27;98467.47;;;11.09;100.00
55301;BME280;58302;51.446;-2.000;2022-11-15T08:21:53;98462.66;;;11.06;100.00
55301;BME280;58302;51.446;-2.000;2022-11-15T08:24:19;98460.44;;;11.08;100.00
55301;BME280;58302;51.446;-2.000;2022-11-15T08:26:46;98462.19;;;11.13;100.00
55301;BME280;58302;51.446;-2.000;2022-11-15T08:29:12;98461.88;;;11.14;100.00
55301;BME280;58302;51.446;-2.000;2022-11-15T08:31:38;98448.28;;;11.14;100.00
55301;BME280;58302;51.446;-2.000;2022-11-15T08:34:05;98473.25;;;11.16;100.00
55301;BME280;58302;51.446;-2.000;2022-11-15T08:36:31;98470.53;;;11.16;100.00
55301;BME280;58302;51.446;-2.000;2022-11-15T08:38:58;98473.53;;;11.15;100.00
55301;BME280;58302;51.446;-2.000;2022-11-15T08:41:27;98472.13;;;11.17;100.00
55301;BME280;58302;51.446;-2.000;2022-11-15T08:43:54;98472.13;;;11.17;100.00
55301;BME280;58302;51.446;-2.000;2022-11-15T08:46:20;98471.47;;;11.20;100.00
55301;BME280;58302;51.446;-2.000;2022-11-15T08:48:45;98461.91;;;11.23;100.00
55301;BME280;58302;51.446;-2.000;2022-11-15T08:51:11;98459.66;;;11.25;100.00
55301;BME280;58302;51.446;-2.000;2022-11-15T08:53:38;98451.50;;;11.25;100.00
55301;BME280;58302;51.446;-2.000;2022-11-15T08:56:07;98449.56;;;11.25;100.00
55301;BME280;58302;51.446;-2.000;2022-11-15T08:58:34;98439.19;;;11.27;100.00
55301;BME280;58302;51.446;-2.000;2022-11-15T09:01:00;98433.44;;;11.29;100.00
55301;BME280;58302;51.446;-2.000;2022-11-15T09:03:26;98432.47;;;11.33;100.00
55301;BME280;58302;51.446;-2.000;2022-11-15T09:05:56;98430.22;;;11.35;100.00
55301;BME280;58302;51.446;-2.000;2022-11-15T09:08:23;98418.72;;;11.39;100.00
55301;BME280;58302;51.446;-2.000;2022-11-15T09:10:49;98408.78;;;11.43;100.00
55301;BME280;58302;51.446;-2.000;2022-11-15T09:13:15;98396.78;;;11.44;100.00
55301;BME280;58302;51.446;-2.000;2022-11-15T09:15:42;98391.50;;;11.47;100.00
55301;BME280;58302;51.446;-2.000;2022-11-15T09:18:11;98389.91;;;11.55;100.00
55301;BME280;58302;51.446;-2.000;2022-11-15T09:20:40;98382.03;;;11.62;100.00
55301;BME280;58302;51.446;-2.000;2022-11-15T09:23:06;98377.41;;;11.63;100.00
55301;BME280;58302;51.446;-2.000;2022-11-15T09:25:34;98377.22;;;11.68;100.00
55301;BME280;58302;51.446;-2.000;2022-11-15T09:28:06;98383.31;;;11.65;100.00
55301;BME280;58302;51.446;-2.000;2022-11-15T09:30:33;98377.41;;;11.63;100.00
55301;BME280;58302;51.446;-2.000;2022-11-15T09:33:06;98371.31;;;11.57;100.00
55301;BME280;58302;51.446;-2.000;2022-11-15T09:35:35;98363.81;;;11.54;100.00
55301;BME280;58302;51.446;-2.000;2022-11-15T09:38:06;98359.66;;;11.48;100.00
55301;BME280;58302;51.446;-2.000;2022-11-15T09:40:36;98368.47;;;11.45;100.00
55301;BME280;58302;51.446;-2.000;2022-11-15T09:49:39;98353.91;;;11.41;100.00
55301;BME280;58302;51.446;-2.000;2022-11-15T09:52:23;98341.44;;;11.40;100.00
55301;BME280;58302;51.446;-2.000;2022-11-15T09:55:05;98339.97;;;11.42;100.00
55301;BME280;58302;51.446;-2.000;2022-11-15T09:57:47;98329.91;;;11.43;100.00
55301;BME280;58302;51.446;-2.000;2022-11-15T10:10:59;98305.59;;;11.46;100.00
55301;BME280;58302;51.446;-2.000;2022-11-15T10:13:34;98288.94;;;11.48;100.00
55301;BME280;58302;51.446;-2.000;2022-11-15T10:24:45;98278.84;;;11.57;100.00
55301;BME280;58302;51.446;-2.000;2022-11-15T10:27:26;98275.47;;;11.60;100.00
55301;BME280;58302;51.446;-2.000;2022-11-15T10:30:14;98286.81;;;11.62;100.00
55301;BME280;58302;51.446;-2.000;2022-11-15T10:43:20;98307.81;;;11.53;100.00
55301;BME280;58302;51.446;-2.000;2022-11-15T10:45:51;98300.03;;;10.82;100.00
55301;BME280;58302;51.446;-2.000;2022-11-15T10:48:20;98309.31;;;10.55;100.00
55301;BME280;58302;51.446;-2.000;2022-11-15T10:50:48;98320.91;;;10.29;100.00
55301;BME280;58302;51.446;-2.000;2022-11-15T10:55:57;98305.31;;;10.04;100.00
55301;BME280;58302;51.446;-2.000;2022-11-15T10:58:35;98309.28;;;9.98;100.00
55301;BME280;58302;51.446;-2.000;2022-11-15T11:01:14;98270.16;;;9.90;100.00
55301;BME280;58302;51.446;-2.000;2022-11-15T11:03:42;98268.25;;;9.91;100.00
55301;BME280;58302;51.446;-2.000;2022-11-15T11:06:14;98284.66;;;9.86;100.00
55301;BME280;58302;51.446;-2.000;2022-11-15T11:08:54;98280.03;;;9.86;100.00
55301;BME280;58302;51.446;-2.000;2022-11-15T11:11:20;98315.97;;;9.92;100.00
55301;BME280;58302;51.446;-2.000;2022-11-15T11:13:46;98306.88;;;9.96;100.00
55301;BME280;58302;51.446;-2.000;2022-11-15T11:21:56;98290.06;;;10.25;100.00
55301;BME280;58302;51.446;-2.000;2022-11-15T11:25:30;98267.28;;;10.44;100.00
55301;BME280;58302;51.446;-2.000;2022-11-15T11:27:24;98300.69;;;10.70;100.00
55301;BME280;58302;51.446;-2.000;2022-11-15T11:43:30;98282.31;;;10.67;100.00
55301;BME280;58302;51.446;-2.000;2022-11-15T11:46:17;98256.09;;;10.80;100.00
55301;BME280;58302;51.446;-2.000;2022-11-15T11:49:07;98280.56;;;10.89;100.00
55301;BME280;58302;51.446;-2.000;2022-11-15T11:51:42;98282.63;;;10.92;100.00
55301;BME280;58302;51.446;-2.000;2022-11-15T11:54:19;98279.75;;;10.97;100.00
55301;BME280;58302;51.446;-2.000;2022-11-15T11:57:12;98283.59;;;11.04;100.00
55301;BME280;58302;51.446;-2.000;2022-11-15T11:59:53;98284.56;;;11.00;100.00
55301;BME280;58302;51.446;-2.000;2022-11-15T12:02:33;98276.72;;;10.90;100.00
55301;BME280;58302;51.446;-2.000;2022-11-15T12:05:28;98278.94;;;10.88;100.00
55301;BME280;58302;51.446;-2.000;2022-11-15T12:08:03;98289.34;;;11.03;100.00
55301;BME280;58302;51.446;-2.000;2022-11-15T12:10:46;98291.88;;;11.08;100.00
55301;BME280;58302;51.446;-2.000;2022-11-15T12:13:35;98301.94;;;11.25;100.00
55301;BME280;58302;51.446;-2.000;2022-11-15T12:16:16;98311.81;;;11.47;100.00
55301;BME280;58302;51.446;-2.000;2022-11-15T12:18:50;98314.28;;;11.86;100.00
55301;BME280;58302;51.446;-2.000;2022-11-15T12:21:44;98299.50;;;12.34;100.00
55301;BME280;58302;51.446;-2.000;2022-11-15T12:24:28;98290.34;;;12.60;100.00
55301;BME280;58302;51.446;-2.000;2022-11-15T12:29:46;98259.28;;;12.94;100.00
55301;BME280;58302;51.446;-2.000;2022-11-15T12:33:00;98269.34;;;12.81;100.00
55301;BME280;58302;51.446;-2.000;2022-11-15T12:38:03;98268.50;;;13.02;100.00
55301;BME280;58302;51.446;-2.000;2022-11-15T12:40:33;98269.94;;;13.08;100.00
55301;BME280;58302;51.446;-2.000;2022-11-15T12:43:01;98275.59;;;13.03;100.00
55301;BME280;58302;51.446;-2.000;2022-11-15T12:45:36;98277.72;;;12.97;100.00
55301;BME280;58302;51.446;-2.000;2022-11-15T13:07:05;98304.91;;;12.85;100.00
55301;BME280;58302;51.446;-2.000;2022-11-15T13:15:00;98302.63;;;11.77;100.00
55301;BME280;58302;51.446;-2.000;2022-11-15T13:17:53;98307.13;;;11.65;100.00
55301;BME280;58302;51.446;-2.000;2022-11-15T13:20:22;98306.22;;;11.52;100.00
55301;BME280;58302;51.446;-2.000;2022-11-15T13:33:17;98314.88;;;11.37;100.00
55301;BME280;58302;51.446;-2.000;2022-11-15T13:35:46;98316.03;;;11.27;100.00
55301;BME280;58302;51.446;-2.000;2022-11-15T13:40:46;98322.09;;;11.24;100.00
55301;BME280;58302;51.446;-2.000;2022-11-15T13:46:06;98317.47;;;11.07;100.00
55301;BME280;58302;51.446;-2.000;2022-11-15T13:48:33;98322.59;;;11.00;100.00
55301;BME280;58302;51.446;-2.000;2022-11-15T13:51:05;98319.38;;;10.98;100.00
55301;BME280;58302;51.446;-2.000;2022-11-15T13:53:33;98322.91;;;10.81;100.00
55301;BME280;58302;51.446;-2.000;2022-11-15T13:56:00;98328.97;;;10.69;100.00
55301;BME280;58302;51.446;-2.000;2022-11-15T13:58:27;98328.47;;;10.59;100.00
55301;BME280;58302;51.446;-2.000;2022-11-15T14:01:04;98337.38;;;10.42;100.00
55301;BME280;58302;51.446;-2.000;2022-11-15T14:03:33;98350.59;;;10.26;100.00
55301;BME280;58302;51.446;-2.000;2022-11-15T14:06:05;98354.66;;;10.06;100.00
55301;BME280;58302;51.446;-2.000;2022-11-15T14:11:27;98355.38;;;9.89;100.00
55301;BME280;58302;51.446;-2.000;2022-11-15T14:14:21;98358.91;;;9.98;100.00
55301;BME280;58302;51.446;-2.000;2022-11-15T14:16:50;98360.69;;;10.03;100.00
55301;BME280;58302;51.446;-2.000;2022-11-15T14:24:38;98338.97;;;9.94;100.00
55301;BME280;58302;51.446;-2.000;2022-11-15T14:29:44;98334.75;;;9.80;100.00
55301;BME280;58302;51.446;-2.000;2022-11-15T14:32:18;98332.69;;;9.85;100.00
55301;BME280;58302;51.446;-2.000;2022-11-15T14:34:45;98337.06;;;9.95;100.00
55301;BME280;58302;51.446;-2.000;2022-11-15T14:39:49;98320.56;;;10.22;100.00
55301;BME280;58302;51.446;-2.000;2022-11-15T14:42:15;98320.38;;;10.19;100.00
55301;BME280;58302;51.446;-2.000;2022-11-15T14:44:41;98317.75;;;10.05;100.00
55301;BME280;58302;51.446;-2.000;2022-11-15T14:47:07;98315.44;;;9.81;100.00
55301;BME280;58302;51.446;-2.000;2022-11-15T14:49:33;98325.53;;;9.58;100.00
55301;BME280;58302;51.446;-2.000;2022-11-15T14:51:59;98325.31;;;9.46;100.00
55301;BME280;58302;51.446;-2.000;2022-11-15T14:54:25;98331.84;;;9.45;100.00
55301;BME280;58302;51.446;-2.000;2022-11-15T14:56:51;98328.69;;;9.52;100.00
55301;BME280;58302;51.446;-2.000;2022-11-15T14:59:17;98339.28;;;9.62;100.00
55301;BME280;58302;51.446;-2.000;2022-11-15T15:01:43;98332.78;;;9.71;100.00
55301;BME280;58302;51.446;-2.000;2022-11-15T15:04:10;98328.81;;;9.77;100.00
55301;BME280;58302;51.446;-2.000;2022-11-15T15:06:37;98325.50;;;9.81;100.00
55301;BME280;58302;51.446;-2.000;2022-11-15T15:09:05;98326.75;;;9.74;100.00
55301;BME280;58302;51.446;-2.000;2022-11-15T15:11:31;98316.34;;;9.68;100.00
55301;BME280;58302;51.446;-2.000;2022-11-15T15:13:58;98314.88;;;9.62;100.00
55301;BME280;58302;51.446;-2.000;2022-11-15T15:16:26;98311.97;;;9.58;100.00
55301;BME280;58302;51.446;-2.000;2022-11-15T15:18:53;98313.03;;;9.48;100.00
55301;BME280;58302;51.446;-2.000;2022-11-15T15:21:28;98320.03;;;9.41;100.00